sensor_id;sensor_type;location;lat;lon;timestamp;temperature;humidity
82231;DHT22;71832;45.138;9.816;2024-03-08T00:00:03;8.50;90.50
82231;DHT22;71832;45.138;9.816;2024-03-08T00:02:37;8.50;90.50
82231;DHT22;71832;45.138;9.816;2024-03-08T00:05:07;8.50;90.20
82231;DHT22;71832;45.138;9.816;2024-03-08T00:07:36;8.50;90.40
82231;DHT22;71832;45.138;9.816;2024-03-08T00:10:07;8.40;90.80
82231;DHT22;71832;45.138;9.816;2024-03-08T00:12:39;8.50;90.70
82231;DHT22;71832;45.138;9.816;2024-03-08T00:15:11;8.50;90.60
82231;DHT22;71832;45.138;9.816;2024-03-08T00:17:42;8.50;90.40
82231;DHT22;71832;45.138;9.816;2024-03-08T00:20:11;8.50;90.20
82231;DHT22;71832;45.138;9.816;2024-03-08T00:22:40;8.50;90.30
82231;DHT22;71832;45.138;9.816;2024-03-08T00:25:09;8.60;90.10
82231;DHT22;71832;45.138;9.816;2024-03-08T00:27:39;8.60;90.00
82231;DHT22;71832;45.138;9.816;2024-03-08T00:30:08;8.60;89.70
82231;DHT22;71832;45.138;9.816;2024-03-08T00:32:38;8.60;89.50
82231;DHT22;71832;45.138;9.816;2024-03-08T00:35:06;8.60;89.50
82231;DHT22;71832;45.138;9.816;2024-03-08T00:37:35;8.70;89.60
82231;DHT22;71832;45.138;9.816;2024-03-08T00:40:04;8.70;89.20
82231;DHT22;71832;45.138;9.816;2024-03-08T00:42:34;8.70;89.00
82231;DHT22;71832;45.138;9.816;2024-03-08T00:45:03;8.70;88.70
82231;DHT22;71832;45.138;9.816;2024-03-08T00:47:32;8.70;88.60
82231;DHT22;71832;45.138;9.816;2024-03-08T00:50:00;8.80;88.40
82231;DHT22;71832;45.138;9.816;2024-03-08T00:52:30;8.80;88.30
82231;DHT22;71832;45.138;9.816;2024-03-08T00:54:59;8.80;88.00
82231;DHT22;71832;45.138;9.816;2024-03-08T00:57:27;8.80;88.00
82231;DHT22;71832;45.138;9.816;2024-03-08T00:59:56;8.80;88.10
82231;DHT22;71832;45.138;9.816;2024-03-08T01:02:25;8.80;88.20
82231;DHT22;71832;45.138;9.816;2024-03-08T01:04:53;8.80;88.30
82231;DHT22;71832;45.138;9.816;2024-03-08T01:07:22;8.80;88.40
82231;DHT22;71832;45.138;9.816;2024-03-08T01:09:51;8.80;88.40
82231;DHT22;71832;45.138;9.816;2024-03-08T01:12:19;8.80;88.30
82231;DHT22;71832;45.138;9.816;2024-03-08T01:14:49;8.80;88.30
82231;DHT22;71832;45.138;9.816;2024-03-08T01:17:17;8.80;88.30
82231;DHT22;71832;45.138;9.816;2024-03-08T01:19:46;8.70;88.00
82231;DHT22;71832;45.138;9.816;2024-03-08T01:22:15;8.70;88.10
82231;DHT22;71832;45.138;9.816;2024-03-08T01:24:43;8.60;88.20
82231;DHT22;71832;45.138;9.816;2024-03-08T01:27:12;8.60;88.30
82231;DHT22;71832;45.138;9.816;2024-03-08T01:29:41;8.60;88.20
82231;DHT22;71832;45.138;9.816;2024-03-08T01:32:09;8.50;88.40
82231;DHT22;71832;45.138;9.816;2024-03-08T01:34:37;8.50;88.40
82231;DHT22;71832;45.138;9.816;2024-03-08T01:37:05;8.50;88.70
82231;DHT22;71832;45.138;9.816;2024-03-08T01:39:34;8.40;88.50
82231;DHT22;71832;45.138;9.816;2024-03-08T01:42:03;8.40;88.50
82231;DHT22;71832;45.138;9.816;2024-03-08T01:44:32;8.40;88.80
82231;DHT22;71832;45.138;9.816;2024-03-08T01:47:01;8.40;89.00
82231;DHT22;71832;45.138;9.816;2024-03-08T01:49:30;8.40;89.20
82231;DHT22;71832;45.138;9.816;2024-03-08T01:52:01;8.40;89.60
82231;DHT22;71832;45.138;9.816;2024-03-08T01:54:30;8.40;90.10
82231;DHT22;71832;45.138;9.816;2024-03-08T01:56:59;8.40;90.30
82231;DHT22;71832;45.138;9.816;2024-03-08T01:59:28;8.50;90.30
82231;DHT22;71832;45.138;9.816;2024-03-08T02:02:01;8.50;90.30
82231;DHT22;71832;45.138;9.816;2024-03-08T02:04:31;8.50;90.30
82231;DHT22;71832;45.138;9.816;2024-03-08T02:07:00;8.50;90.40
82231;DHT22;71832;45.138;9.816;2024-03-08T02:09:28;8.50;90.40
82231;DHT22;71832;45.138;9.816;2024-03-08T02:11:57;8.50;90.80
82231;DHT22;71832;45.138;9.816;2024-03-08T02:14:25;8.60;91.00
82231;DHT22;71832;45.138;9.816;2024-03-08T02:16:53;8.50;91.10
82231;DHT22;71832;45.138;9.816;2024-03-08T02:19:25;8.60;91.30
82231;DHT22;71832;45.138;9.816;2024-03-08T02:21:53;8.60;91.50
82231;DHT22;71832;45.138;9.816;2024-03-08T02:24:23;8.60;92.10
82231;DHT22;71832;45.138;9.816;2024-03-08T02:26:52;8.60;92.20
82231;DHT22;71832;45.138;9.816;2024-03-08T02:29:21;8.60;91.90
82231;DHT22;71832;45.138;9.816;2024-03-08T02:31:51;8.50;90.80
82231;DHT22;71832;45.138;9.816;2024-03-08T02:34:19;8.40;90.50
82231;DHT22;71832;45.138;9.816;2024-03-08T02:36:48;8.30;90.30
82231;DHT22;71832;45.138;9.816;2024-03-08T02:39:17;8.20;89.70
82231;DHT22;71832;45.138;9.816;2024-03-08T02:41:47;8.00;89.30
82231;DHT22;71832;45.138;9.816;2024-03-08T02:44:15;8.00;89.20
82231;DHT22;71832;45.138;9.816;2024-03-08T02:46:43;7.80;89.50
82231;DHT22;71832;45.138;9.816;2024-03-08T02:49:12;7.80;90.10
82231;DHT22;71832;45.138;9.816;2024-03-08T02:51:40;7.80;90.50
82231;DHT22;71832;45.138;9.816;2024-03-08T02:54:08;7.70;90.90
82231;DHT22;71832;45.138;9.816;2024-03-08T02:56:38;7.60;91.20
82231;DHT22;71832;45.138;9.816;2024-03-08T02:59:06;7.60;91.80
82231;DHT22;71832;45.138;9.816;2024-03-08T03:01:35;7.70;92.00
82231;DHT22;71832;45.138;9.816;2024-03-08T03:04:05;7.70;91.90
82231;DHT22;71832;45.138;9.816;2024-03-08T03:06:33;7.70;92.30
82231;DHT22;71832;45.138;9.816;2024-03-08T03:09:03;7.70;92.10
82231;DHT22;71832;45.138;9.816;2024-03-08T03:11:33;7.80;91.90
82231;DHT22;71832;45.138;9.816;2024-03-08T03:14:01;7.80;91.80
82231;DHT22;71832;45.138;9.816;2024-03-08T03:16:29;7.80;92.20
82231;DHT22;71832;45.138;9.816;2024-03-08T03:18:58;7.80;92.50
82231;DHT22;71832;45.138;9.816;2024-03-08T03:21:29;7.80;92.40
82231;DHT22;71832;45.138;9.816;2024-03-08T03:23:59;7.80;92.20
82231;DHT22;71832;45.138;9.816;2024-03-08T03:26:27;7.70;92.40
82231;DHT22;71832;45.138;9.816;2024-03-08T03:28:56;7.70;92.60
82231;DHT22;71832;45.138;9.816;2024-03-08T03:31:24;7.70;92.60
82231;DHT22;71832;45.138;9.816;2024-03-08T03:33:52;7.80;92.70
82231;DHT22;71832;45.138;9.816;2024-03-08T03:36:21;7.80;92.60
82231;DHT22;71832;45.138;9.816;2024-03-08T03:38:52;7.80;92.80
82231;DHT22;71832;45.138;9.816;2024-03-08T03:41:31;7.80;92.90
82231;DHT22;71832;45.138;9.816;2024-03-08T03:44:00;7.80;92.80
82231;DHT22;71832;45.138;9.816;2024-03-08T03:46:29;7.90;92.90
82231;DHT22;71832;45.138;9.816;2024-03-08T03:48:57;7.90;92.90
82231;DHT22;71832;45.138;9.816;2024-03-08T03:51:26;7.90;93.00
82231;DHT22;71832;45.138;9.816;2024-03-08T03:53:56;7.90;92.80
82231;DHT22;71832;45.138;9.816;2024-03-08T03:56:26;8.00;92.80
82231;DHT22;71832;45.138;9.816;2024-03-08T03:58:55;7.90;92.70
82231;DHT22;71832;45.138;9.816;2024-03-08T04:01:23;7.90;92.60
82231;DHT22;71832;45.138;9.816;2024-03-08T04:03:51;7.90;92.50
82231;DHT22;71832;45.138;9.816;2024-03-08T04:06:20;8.00;92.50
82231;DHT22;71832;45.138;9.816;2024-03-08T04:08:49;8.00;92.70
82231;DHT22;71832;45.138;9.816;2024-03-08T04:11:18;8.00;92.60
82231;DHT22;71832;45.138;9.816;2024-03-08T04:13:47;7.90;92.20
82231;DHT22;71832;45.138;9.816;2024-03-08T04:16:15;7.90;92.40
82231;DHT22;71832;45.138;9.816;2024-03-08T04:18:46;7.80;92.50
82231;DHT22;71832;45.138;9.816;2024-03-08T04:21:14;7.80;92.70
82231;DHT22;71832;45.138;9.816;2024-03-08T04:23:42;7.80;93.00
82231;DHT22;71832;45.138;9.816;2024-03-08T04:26:12;7.90;93.10
82231;DHT22;71832;45.138;9.816;2024-03-08T04:28:41;7.90;93.20
82231;DHT22;71832;45.138;9.816;2024-03-08T04:31:09;7.90;93.30
82231;DHT22;71832;45.138;9.816;2024-03-08T04:33:37;8.00;93.30
82231;DHT22;71832;45.138;9.816;2024-03-08T04:36:06;8.00;93.40
82231;DHT22;71832;45.138;9.816;2024-03-08T04:38:35;8.00;93.50
82231;DHT22;71832;45.138;9.816;2024-03-08T04:41:03;8.00;93.50
82231;DHT22;71832;45.138;9.816;2024-03-08T04:43:32;8.00;93.10
82231;DHT22;71832;45.138;9.816;2024-03-08T04:46:01;8.00;92.80
82231;DHT22;71832;45.138;9.816;2024-03-08T04:48:30;8.00;92.60
82231;DHT22;71832;45.138;9.816;2024-03-08T04:50:59;8.00;92.60
82231;DHT22;71832;45.138;9.816;2024-03-08T04:53:28;8.00;92.40
82231;DHT22;71832;45.138;9.816;2024-03-08T04:55:57;7.90;92.20
82231;DHT22;71832;45.138;9.816;2024-03-08T04:58:26;7.90;92.60
82231;DHT22;71832;45.138;9.816;2024-03-08T05:00:55;7.90;92.70
82231;DHT22;71832;45.138;9.816;2024-03-08T05:03:22;7.90;93.00
82231;DHT22;71832;45.138;9.816;2024-03-08T05:05:54;7.90;93.00
82231;DHT22;71832;45.138;9.816;2024-03-08T05:08:23;8.00;93.00
82231;DHT22;71832;45.138;9.816;2024-03-08T05:10:53;8.00;93.10
82231;DHT22;71832;45.138;9.816;2024-03-08T05:13:22;8.00;93.20
82231;DHT22;71832;45.138;9.816;2024-03-08T05:15:51;8.00;93.20
82231;DHT22;71832;45.138;9.816;2024-03-08T05:18:19;8.00;93.20
82231;DHT22;71832;45.138;9.816;2024-03-08T05:20:49;8.00;93.30
82231;DHT22;71832;45.138;9.816;2024-03-08T05:23:18;8.00;93.20
82231;DHT22;71832;45.138;9.816;2024-03-08T05:25:47;8.00;93.10
82231;DHT22;71832;45.138;9.816;2024-03-08T05:28:15;8.00;93.10
82231;DHT22;71832;45.138;9.816;2024-03-08T05:30:44;8.10;93.00
82231;DHT22;71832;45.138;9.816;2024-03-08T05:33:13;8.10;93.00
82231;DHT22;71832;45.138;9.816;2024-03-08T05:35:42;8.10;93.20
82231;DHT22;71832;45.138;9.816;2024-03-08T05:38:10;8.10;93.20
82231;DHT22;71832;45.138;9.816;2024-03-08T05:40:40;8.10;93.20
82231;DHT22;71832;45.138;9.816;2024-03-08T05:43:10;8.10;93.50
82231;DHT22;71832;45.138;9.816;2024-03-08T05:45:39;8.10;93.30
82231;DHT22;71832;45.138;9.816;2024-03-08T05:48:08;8.10;93.20
82231;DHT22;71832;45.138;9.816;2024-03-08T05:50:36;8.10;93.40
82231;DHT22;71832;45.138;9.816;2024-03-08T05:53:05;8.10;93.60
82231;DHT22;71832;45.138;9.816;2024-03-08T05:55:34;8.10;93.60
82231;DHT22;71832;45.138;9.816;2024-03-08T05:58:03;8.10;93.60
82231;DHT22;71832;45.138;9.816;2024-03-08T06:00:31;8.10;93.60
82231;DHT22;71832;45.138;9.816;2024-03-08T06:02:59;8.10;93.60
82231;DHT22;71832;45.138;9.816;2024-03-08T06:05:26;8.20;93.80
82231;DHT22;71832;45.138;9.816;2024-03-08T06:07:54;8.20;93.70
82231;DHT22;71832;45.138;9.816;2024-03-08T06:10:23;8.20;94.00
82231;DHT22;71832;45.138;9.816;2024-03-08T06:12:51;8.20;94.10
82231;DHT22;71832;45.138;9.816;2024-03-08T06:15:18;8.20;94.20
82231;DHT22;71832;45.138;9.816;2024-03-08T06:17:47;8.30;94.30
82231;DHT22;71832;45.138;9.816;2024-03-08T06:20:14;8.30;94.40
82231;DHT22;71832;45.138;9.816;2024-03-08T06:22:42;8.30;94.50
82231;DHT22;71832;45.138;9.816;2024-03-08T06:25:11;8.30;94.40
82231;DHT22;71832;45.138;9.816;2024-03-08T06:27:42;8.40;94.40
82231;DHT22;71832;45.138;9.816;2024-03-08T06:30:11;8.40;94.60
82231;DHT22;71832;45.138;9.816;2024-03-08T06:32:39;8.40;94.50
82231;DHT22;71832;45.138;9.816;2024-03-08T06:35:09;8.40;94.60
82231;DHT22;71832;45.138;9.816;2024-03-08T06:37:37;8.50;94.60
82231;DHT22;71832;45.138;9.816;2024-03-08T06:40:05;8.50;94.50
82231;DHT22;71832;45.138;9.816;2024-03-08T06:42:35;8.50;94.30
82231;DHT22;71832;45.138;9.816;2024-03-08T06:45:02;8.60;94.10
82231;DHT22;71832;45.138;9.816;2024-03-08T06:47:32;8.50;93.90
82231;DHT22;71832;45.138;9.816;2024-03-08T06:49:59;8.60;93.90
82231;DHT22;71832;45.138;9.816;2024-03-08T06:52:27;8.50;94.20
82231;DHT22;71832;45.138;9.816;2024-03-08T06:54:55;8.60;94.30
82231;DHT22;71832;45.138;9.816;2024-03-08T06:57:24;8.60;94.40
82231;DHT22;71832;45.138;9.816;2024-03-08T06:59:52;8.60;94.60
82231;DHT22;71832;45.138;9.816;2024-03-08T07:02:21;8.60;94.30
82231;DHT22;71832;45.138;9.816;2024-03-08T07:04:52;8.60;94.40
82231;DHT22;71832;45.138;9.816;2024-03-08T07:07:20;8.70;94.20
82231;DHT22;71832;45.138;9.816;2024-03-08T07:09:50;8.70;94.20
82231;DHT22;71832;45.138;9.816;2024-03-08T07:12:17;8.80;94.30
82231;DHT22;71832;45.138;9.816;2024-03-08T07:14:47;8.80;93.70
82231;DHT22;71832;45.138;9.816;2024-03-08T07:17:16;8.80;93.70
82231;DHT22;71832;45.138;9.816;2024-03-08T07:19:48;8.80;93.50
82231;DHT22;71832;45.138;9.816;2024-03-08T07:22:15;8.80;93.60
82231;DHT22;71832;45.138;9.816;2024-03-08T07:24:44;8.80;93.60
82231;DHT22;71832;45.138;9.816;2024-03-08T07:27:31;8.80;93.60
82231;DHT22;71832;45.138;9.816;2024-03-08T07:30:02;8.90;93.50
82231;DHT22;71832;45.138;9.816;2024-03-08T07:32:30;8.90;93.80
82231;DHT22;71832;45.138;9.816;2024-03-08T07:34:59;8.90;93.90
82231;DHT22;71832;45.138;9.816;2024-03-08T07:37:29;8.90;93.70
82231;DHT22;71832;45.138;9.816;2024-03-08T07:39:58;8.90;93.90
82231;DHT22;71832;45.138;9.816;2024-03-08T07:42:26;9.00;94.00
82231;DHT22;71832;45.138;9.816;2024-03-08T07:44:55;9.00;94.00
82231;DHT22;71832;45.138;9.816;2024-03-08T07:47:23;9.00;94.00
82231;DHT22;71832;45.138;9.816;2024-03-08T07:49:53;9.00;93.90
82231;DHT22;71832;45.138;9.816;2024-03-08T07:52:21;9.00;93.80
82231;DHT22;71832;45.138;9.816;2024-03-08T07:54:50;9.00;93.70
82231;DHT22;71832;45.138;9.816;2024-03-08T07:57:18;9.00;93.70
82231;DHT22;71832;45.138;9.816;2024-03-08T07:59:47;9.10;93.80
82231;DHT22;71832;45.138;9.816;2024-03-08T08:02:15;9.20;94.00
82231;DHT22;71832;45.138;9.816;2024-03-08T08:04:43;9.20;93.70
82231;DHT22;71832;45.138;9.816;2024-03-08T08:07:11;9.20;93.60
82231;DHT22;71832;45.138;9.816;2024-03-08T08:09:39;9.20;93.70
82231;DHT22;71832;45.138;9.816;2024-03-08T08:12:09;9.30;93.90
82231;DHT22;71832;45.138;9.816;2024-03-08T08:14:39;9.40;93.60
82231;DHT22;71832;45.138;9.816;2024-03-08T08:17:08;9.40;93.70
82231;DHT22;71832;45.138;9.816;2024-03-08T08:19:36;9.40;93.70
82231;DHT22;71832;45.138;9.816;2024-03-08T08:22:05;9.40;93.40
82231;DHT22;71832;45.138;9.816;2024-03-08T08:24:36;9.40;92.70
82231;DHT22;71832;45.138;9.816;2024-03-08T08:27:04;9.40;92.70
82231;DHT22;71832;45.138;9.816;2024-03-08T08:29:32;9.40;92.80
82231;DHT22;71832;45.138;9.816;2024-03-08T08:32:01;9.40;91.80
82231;DHT22;71832;45.138;9.816;2024-03-08T08:34:30;9.40;92.20
82231;DHT22;71832;45.138;9.816;2024-03-08T08:36:58;9.40;92.10
82231;DHT22;71832;45.138;9.816;2024-03-08T08:39:28;9.50;92.60
82231;DHT22;71832;45.138;9.816;2024-03-08T08:41:56;9.50;92.60
82231;DHT22;71832;45.138;9.816;2024-03-08T08:44:25;9.50;91.90
82231;DHT22;71832;45.138;9.816;2024-03-08T08:46:54;9.60;91.60
82231;DHT22;71832;45.138;9.816;2024-03-08T08:49:21;9.60;91.60
82231;DHT22;71832;45.138;9.816;2024-03-08T08:51:50;9.60;91.40
82231;DHT22;71832;45.138;9.816;2024-03-08T08:54:19;9.60;91.00
82231;DHT22;71832;45.138;9.816;2024-03-08T08:56:47;9.70;90.90
82231;DHT22;71832;45.138;9.816;2024-03-08T08:59:15;9.70;90.80
82231;DHT22;71832;45.138;9.816;2024-03-08T09:01:46;9.70;91.20
82231;DHT22;71832;45.138;9.816;2024-03-08T09:04:13;9.70;91.20
82231;DHT22;71832;45.138;9.816;2024-03-08T09:06:41;9.70;91.10
82231;DHT22;71832;45.138;9.816;2024-03-08T09:09:08;9.70;91.00
82231;DHT22;71832;45.138;9.816;2024-03-08T09:11:38;9.80;90.40
82231;DHT22;71832;45.138;9.816;2024-03-08T09:14:08;9.80;90.10
82231;DHT22;71832;45.138;9.816;2024-03-08T09:16:40;9.90;89.80
82231;DHT22;71832;45.138;9.816;2024-03-08T09:19:08;10.00;89.80
82231;DHT22;71832;45.138;9.816;2024-03-08T09:21:37;10.10;90.20
82231;DHT22;71832;45.138;9.816;2024-03-08T09:24:08;10.20;90.20
82231;DHT22;71832;45.138;9.816;2024-03-08T09:26:35;10.30;89.70
82231;DHT22;71832;45.138;9.816;2024-03-08T09:29:04;10.40;88.90
82231;DHT22;71832;45.138;9.816;2024-03-08T09:31:33;10.40;88.80
82231;DHT22;71832;45.138;9.816;2024-03-08T09:34:01;10.50;88.10
82231;DHT22;71832;45.138;9.816;2024-03-08T09:36:28;10.50;87.90
82231;DHT22;71832;45.138;9.816;2024-03-08T09:38:56;10.60;87.20
82231;DHT22;71832;45.138;9.816;2024-03-08T09:41:24;10.60;87.70
82231;DHT22;71832;45.138;9.816;2024-03-08T09:43:51;10.60;87.60
82231;DHT22;71832;45.138;9.816;2024-03-08T09:46:20;10.70;87.30
82231;DHT22;71832;45.138;9.816;2024-03-08T09:48:49;10.60;86.50
82231;DHT22;71832;45.138;9.816;2024-03-08T09:51:16;10.60;87.00
82231;DHT22;71832;45.138;9.816;2024-03-08T09:53:44;10.50;87.30
82231;DHT22;71832;45.138;9.816;2024-03-08T09:56:13;10.50;87.80
82231;DHT22;71832;45.138;9.816;2024-03-08T09:58:42;10.50;88.00
82231;DHT22;71832;45.138;9.816;2024-03-08T10:01:29;10.40;87.50
82231;DHT22;71832;45.138;9.816;2024-03-08T10:03:58;10.40;87.50
82231;DHT22;71832;45.138;9.816;2024-03-08T10:06:26;10.40;87.80
82231;DHT22;71832;45.138;9.816;2024-03-08T10:08:54;10.40;87.70
82231;DHT22;71832;45.138;9.816;2024-03-08T10:11:24;10.40;87.60
82231;DHT22;71832;45.138;9.816;2024-03-08T10:13:54;10.40;88.10
82231;DHT22;71832;45.138;9.816;2024-03-08T10:16:22;10.40;88.30
82231;DHT22;71832;45.138;9.816;2024-03-08T10:18:51;10.50;88.50
82231;DHT22;71832;45.138;9.816;2024-03-08T10:21:22;10.60;87.70
82231;DHT22;71832;45.138;9.816;2024-03-08T10:23:50;10.70;87.30
82231;DHT22;71832;45.138;9.816;2024-03-08T10:26:18;10.80;86.90
82231;DHT22;71832;45.138;9.816;2024-03-08T10:28:49;10.90;86.90
82231;DHT22;71832;45.138;9.816;2024-03-08T10:31:18;10.90;86.90
82231;DHT22;71832;45.138;9.816;2024-03-08T10:33:47;11.00;85.80
82231;DHT22;71832;45.138;9.816;2024-03-08T10:36:16;11.00;85.60
82231;DHT22;71832;45.138;9.816;2024-03-08T10:38:46;11.00;85.80
82231;DHT22;71832;45.138;9.816;2024-03-08T10:41:16;11.00;85.70
82231;DHT22;71832;45.138;9.816;2024-03-08T10:49:18;11.10;85.70
82231;DHT22;71832;45.138;9.816;2024-03-08T10:51:50;11.10;84.50
82231;DHT22;71832;45.138;9.816;2024-03-08T10:54:20;11.20;84.60
82231;DHT22;71832;45.138;9.816;2024-03-08T10:56:49;11.20;84.30
82231;DHT22;71832;45.138;9.816;2024-03-08T10:59:18;11.30;84.50
82231;DHT22;71832;45.138;9.816;2024-03-08T11:01:47;11.30;83.70
82231;DHT22;71832;45.138;9.816;2024-03-08T11:04:14;11.20;83.50
82231;DHT22;71832;45.138;9.816;2024-03-08T11:06:46;11.20;84.20
82231;DHT22;71832;45.138;9.816;2024-03-08T11:09:37;11.30;84.80
82231;DHT22;71832;45.138;9.816;2024-03-08T11:12:25;11.40;84.80
82231;DHT22;71832;45.138;9.816;2024-03-08T11:14:54;11.40;84.10
82231;DHT22;71832;45.138;9.816;2024-03-08T11:17:42;11.40;83.60
82231;DHT22;71832;45.138;9.816;2024-03-08T11:20:12;11.50;83.30
82231;DHT22;71832;45.138;9.816;2024-03-08T11:22:47;11.50;84.20
82231;DHT22;71832;45.138;9.816;2024-03-08T11:25:39;11.50;83.60
82231;DHT22;71832;45.138;9.816;2024-03-08T11:28:20;11.50;83.50
82231;DHT22;71832;45.138;9.816;2024-03-08T11:33:29;11.60;83.30
82231;DHT22;71832;45.138;9.816;2024-03-08T11:36:20;11.70;83.00
82231;DHT22;71832;45.138;9.816;2024-03-08T11:38:49;11.70;81.70
82231;DHT22;71832;45.138;9.816;2024-03-08T11:41:19;11.70;82.50
82231;DHT22;71832;45.138;9.816;2024-03-08T11:43:49;11.70;83.90
82231;DHT22;71832;45.138;9.816;2024-03-08T11:46:17;11.70;83.60
82231;DHT22;71832;45.138;9.816;2024-03-08T11:48:48;11.70;83.20
82231;DHT22;71832;45.138;9.816;2024-03-08T11:51:16;11.90;83.40
82231;DHT22;71832;45.138;9.816;2024-03-08T11:53:45;11.90;83.40
82231;DHT22;71832;45.138;9.816;2024-03-08T11:56:14;12.00;82.40
82231;DHT22;71832;45.138;9.816;2024-03-08T11:58:52;11.90;80.90
82231;DHT22;71832;45.138;9.816;2024-03-08T12:01:20;11.90;81.10
82231;DHT22;71832;45.138;9.816;2024-03-08T12:03:53;11.70;81.20
82231;DHT22;71832;45.138;9.816;2024-03-08T12:06:21;11.70;82.40
82231;DHT22;71832;45.138;9.816;2024-03-08T12:08:49;11.60;83.60
82231;DHT22;71832;45.138;9.816;2024-03-08T12:11:18;11.50;83.60
82231;DHT22;71832;45.138;9.816;2024-03-08T12:13:50;11.50;83.00
82231;DHT22;71832;45.138;9.816;2024-03-08T12:16:19;11.60;82.40
82231;DHT22;71832;45.138;9.816;2024-03-08T12:18:50;11.60;82.80
82231;DHT22;71832;45.138;9.816;2024-03-08T12:21:20;11.70;83.70
82231;DHT22;71832;45.138;9.816;2024-03-08T12:24:10;11.70;82.10
82231;DHT22;71832;45.138;9.816;2024-03-08T12:26:40;11.80;81.70
82231;DHT22;71832;45.138;9.816;2024-03-08T12:29:28;11.80;81.50
82231;DHT22;71832;45.138;9.816;2024-03-08T12:32:00;11.90;81.40
82231;DHT22;71832;45.138;9.816;2024-03-08T12:34:29;11.90;81.60
82231;DHT22;71832;45.138;9.816;2024-03-08T12:36:59;11.90;82.40
82231;DHT22;71832;45.138;9.816;2024-03-08T12:39:29;11.90;82.60
82231;DHT22;71832;45.138;9.816;2024-03-08T12:41:58;11.90;81.70
82231;DHT22;71832;45.138;9.816;2024-03-08T12:44:27;11.90;82.60
82231;DHT22;71832;45.138;9.816;2024-03-08T12:46:55;11.90;82.70
82231;DHT22;71832;45.138;9.816;2024-03-08T12:49:25;11.80;82.60
82231;DHT22;71832;45.138;9.816;2024-03-08T12:51:54;11.70;83.10
82231;DHT22;71832;45.138;9.816;2024-03-08T12:54:22;11.70;83.90
82231;DHT22;71832;45.138;9.816;2024-03-08T12:56:51;11.70;83.90
82231;DHT22;71832;45.138;9.816;2024-03-08T12:59:20;11.70;83.60
82231;DHT22;71832;45.138;9.816;2024-03-08T13:01:49;11.70;84.10
82231;DHT22;71832;45.138;9.816;2024-03-08T13:04:18;11.80;84.50
82231;DHT22;71832;45.138;9.816;2024-03-08T13:06:45;11.90;83.30
82231;DHT22;71832;45.138;9.816;2024-03-08T13:09:17;11.90;83.30
82231;DHT22;71832;45.138;9.816;2024-03-08T13:11:47;11.90;83.20
82231;DHT22;71832;45.138;9.816;2024-03-08T13:14:15;11.90;83.00
82231;DHT22;71832;45.138;9.816;2024-03-08T13:16:43;11.90;82.80
82231;DHT22;71832;45.138;9.816;2024-03-08T13:19:15;11.90;82.90
82231;DHT22;71832;45.138;9.816;2024-03-08T13:21:43;11.90;82.80
82231;DHT22;71832;45.138;9.816;2024-03-08T13:24:16;11.90;81.80
82231;DHT22;71832;45.138;9.816;2024-03-08T13:26:46;11.90;82.10
82231;DHT22;71832;45.138;9.816;2024-03-08T13:29:15;11.90;82.20
82231;DHT22;71832;45.138;9.816;2024-03-08T13:31:45;11.90;82.40
82231;DHT22;71832;45.138;9.816;2024-03-08T13:34:16;11.90;82.70
82231;DHT22;71832;45.138;9.816;2024-03-08T13:36:45;11.90;82.70
82231;DHT22;71832;45.138;9.816;2024-03-08T13:39:13;11.90;83.10
82231;DHT22;71832;45.138;9.816;2024-03-08T13:41:42;11.90;83.40
82231;DHT22;71832;45.138;9.816;2024-03-08T13:44:12;11.90;83.30
82231;DHT22;71832;45.138;9.816;2024-03-08T13:46:40;11.90;82.70
82231;DHT22;71832;45.138;9.816;2024-03-08T13:49:09;11.90;82.80
82231;DHT22;71832;45.138;9.816;2024-03-08T13:51:38;11.90;82.20
82231;DHT22;71832;45.138;9.816;2024-03-08T13:54:06;11.90;82.30
82231;DHT22;71832;45.138;9.816;2024-03-08T13:56:35;11.90;82.60
82231;DHT22;71832;45.138;9.816;2024-03-08T13:59:04;11.80;82.40
82231;DHT22;71832;45.138;9.816;2024-03-08T14:01:33;11.70;82.40
82231;DHT22;71832;45.138;9.816;2024-03-08T14:04:03;11.70;82.40
82231;DHT22;71832;45.138;9.816;2024-03-08T14:06:31;11.70;82.50
82231;DHT22;71832;45.138;9.816;2024-03-08T14:09:00;11.60;82.70
82231;DHT22;71832;45.138;9.816;2024-03-08T14:11:29;11.50;82.70
82231;DHT22;71832;45.138;9.816;2024-03-08T14:13:57;11.50;82.70
82231;DHT22;71832;45.138;9.816;2024-03-08T14:16:26;11.50;82.70
82231;DHT22;71832;45.138;9.816;2024-03-08T14:18:55;11.50;82.90
82231;DHT22;71832;45.138;9.816;2024-03-08T14:21:23;11.40;83.30
82231;DHT22;71832;45.138;9.816;2024-03-08T14:23:53;11.40;83.10
82231;DHT22;71832;45.138;9.816;2024-03-08T14:26:21;11.30;82.90
82231;DHT22;71832;45.138;9.816;2024-03-08T14:28:50;11.30;83.30
82231;DHT22;71832;45.138;9.816;2024-03-08T14:31:21;11.20;83.20
82231;DHT22;71832;45.138;9.816;2024-03-08T14:33:52;11.20;82.90
82231;DHT22;71832;45.138;9.816;2024-03-08T14:36:22;11.10;82.90
82231;DHT22;71832;45.138;9.816;2024-03-08T14:38:50;11.10;83.30
82231;DHT22;71832;45.138;9.816;2024-03-08T14:41:19;11.10;83.50
82231;DHT22;71832;45.138;9.816;2024-03-08T14:43:47;11.10;84.00
82231;DHT22;71832;45.138;9.816;2024-03-08T14:46:16;11.10;84.10
82231;DHT22;71832;45.138;9.816;2024-03-08T14:48:45;11.10;83.70
82231;DHT22;71832;45.138;9.816;2024-03-08T14:51:14;11.20;83.50
82231;DHT22;71832;45.138;9.816;2024-03-08T14:53:43;11.30;82.50
82231;DHT22;71832;45.138;9.816;2024-03-08T14:56:13;11.20;82.80
82231;DHT22;71832;45.138;9.816;2024-03-08T14:58:44;11.20;82.50
82231;DHT22;71832;45.138;9.816;2024-03-08T15:01:13;11.10;82.60
82231;DHT22;71832;45.138;9.816;2024-03-08T15:03:42;11.10;82.90
82231;DHT22;71832;45.138;9.816;2024-03-08T15:06:11;11.10;83.20
82231;DHT22;71832;45.138;9.816;2024-03-08T15:08:40;11.00;83.90
82231;DHT22;71832;45.138;9.816;2024-03-08T15:11:09;11.00;84.50
82231;DHT22;71832;45.138;9.816;2024-03-08T15:13:38;11.00;84.00
82231;DHT22;71832;45.138;9.816;2024-03-08T15:16:10;10.90;83.70
82231;DHT22;71832;45.138;9.816;2024-03-08T15:18:44;10.90;83.50
82231;DHT22;71832;45.138;9.816;2024-03-08T15:21:17;10.90;83.30
82231;DHT22;71832;45.138;9.816;2024-03-08T15:23:47;10.90;83.20
82231;DHT22;71832;45.138;9.816;2024-03-08T15:26:17;10.90;83.20
82231;DHT22;71832;45.138;9.816;2024-03-08T15:28:46;10.80;83.20
82231;DHT22;71832;45.138;9.816;2024-03-08T15:31:18;10.80;83.40
82231;DHT22;71832;45.138;9.816;2024-03-08T15:33:47;10.70;83.40
82231;DHT22;71832;45.138;9.816;2024-03-08T15:36:18;10.70;83.20
82231;DHT22;71832;45.138;9.816;2024-03-08T15:38:48;10.70;82.80
82231;DHT22;71832;45.138;9.816;2024-03-08T15:41:18;10.70;82.70
82231;DHT22;71832;45.138;9.816;2024-03-08T15:43:47;10.60;82.60
82231;DHT22;71832;45.138;9.816;2024-03-08T15:46:17;10.60;82.90
82231;DHT22;71832;45.138;9.816;2024-03-08T15:48:49;10.60;83.30
82231;DHT22;71832;45.138;9.816;2024-03-08T15:51:18;10.60;83.50
82231;DHT22;71832;45.138;9.816;2024-03-08T15:53:47;10.50;82.90
82231;DHT22;71832;45.138;9.816;2024-03-08T15:56:20;10.50;82.70
82231;DHT22;71832;45.138;9.816;2024-03-08T15:58:49;10.50;82.80
82231;DHT22;71832;45.138;9.816;2024-03-08T16:01:16;10.50;82.60